CSCL Long Beach — VRCZ7 — position and weather

sailwx.info

Track history (hours):
 
Tides and Currents Weather Stations Pressure Air Temp Water Temp Dewpoint Dewpoint Depression Visibility Wind Speed Wind Dir Waves Ship Positions

CSCL Long Beach

Last reported at 2017-Jun-20 17:36 UTC. Time now 2017-Jun-24 05:21 UTC.
Position N 23°48' E 118°32'.

Length 336.7 m; beam 45.6 m; draft 15 m.

Type: Ship. MMSI: 477883900.

Date/timePositionNaut miles runAvg speedWind from/ knotsBaromVisibWave heightAir tempDewpointWater temp
2017-Jun-20 17:36N 23°48' E 118°32'  
2017-Jun-18 03:58N 30°53' E 123°02'811.8
2017-Jun-18 03:17N 30°60' E 122°57'1011.9
2017-Jun-18 02:28N 31°05' E 122°48'712.6
2017-Jun-18 01:57N 31°05' E 122°40'715.7
2017-Jun-18 01:30N 31°06' E 122°32'612.4
2017-Jun-18 01:00N 31°06' E 122°24'714.0
2017-Jun-18 00:30N 31°07' E 122°16'815.2
2017-Jun-17 23:59N 31°12' E 122°09'714.5
2017-Jun-17 23:30N 31°14' E 122°01'815.0
2017-Jun-17 23:01N 31°16' E 121°53'815.0
2017-Jun-17 22:30N 31°19' E 121°45'612.7
2017-Jun-17 22:00N 31°22' E 121°38'3 5.8
2017-Jun-17 21:29N 31°23' E 121°35'0 0.0
2017-Jun-17 20:59N 31°23' E 121°35'0 0.0
2017-Jun-17 20:26N 31°23' E 121°35'0 0.1
2017-Jun-17 19:59N 31°23' E 121°35'0 0.0
2017-Jun-17 19:23N 31°23' E 121°35'0 0.0
2017-Jun-17 18:59N 31°23' E 121°35'0 0.0
2017-Jun-17 18:29N 31°23' E 121°35'0 0.0
2017-Jun-17 17:59N 31°23' E 121°35'0 0.0
2017-Jun-17 17:29N 31°23' E 121°35'0 0.0
2017-Jun-17 16:56N 31°23' E 121°35'0 0.0
2017-Jun-17 16:29N 31°23' E 121°35'0 0.0
2017-Jun-17 15:56N 31°23' E 121°35'0 0.0
2017-Jun-17 15:29N 31°23' E 121°35'0 0.0
2017-Jun-17 14:59N 31°23' E 121°35'0 0.0
2017-Jun-17 14:29N 31°23' E 121°35'0 0.0
2017-Jun-17 13:29N 31°23' E 121°35'0 0.0
2017-Jun-17 12:59N 31°23' E 121°35'0 0.0
2017-Jun-17 12:29N 31°23' E 121°35'0 0.0
2017-Jun-17 11:59N 31°23' E 121°35'0 0.0
2017-Jun-17 11:29N 31°23' E 121°35'0 0.0
2017-Jun-17 10:59N 31°23' E 121°35'0 0.1
2017-Jun-17 10:26N 31°23' E 121°35'0 0.2
2017-Jun-17 09:59N 31°23' E 121°35'0 0.0
2017-Jun-17 09:26N 31°23' E 121°35'0 0.0
2017-Jun-17 08:56N 31°23' E 121°35'0 0.0
2017-Jun-17 08:29N 31°23' E 121°35'0 0.0
2017-Jun-17 07:59N 31°23' E 121°35'0 0.0
2017-Jun-17 07:29N 31°23' E 121°35'0 0.0
2017-Jun-17 06:59N 31°23' E 121°35'0 0.0
2017-Jun-17 06:29N 31°23' E 121°35'0 0.0
2017-Jun-17 05:53N 31°23' E 121°35'0 0.0
2017-Jun-17 05:29N 31°23' E 121°35'0 0.0
2017-Jun-17 04:59N 31°23' E 121°35'0 0.0
2017-Jun-17 04:29N 31°23' E 121°35'0 0.0
2017-Jun-17 03:59N 31°23' E 121°35'0 0.0
2017-Jun-17 03:29N 31°23' E 121°35'0 0.0
2017-Jun-17 02:59N 31°23' E 121°35'0 0.0
2017-Jun-17 02:29N 31°23' E 121°35'0 0.0
2017-Jun-17 01:59N 31°23' E 121°35'0 0.0
2017-Jun-17 01:29N 31°23' E 121°35'0 0.0
2017-Jun-17 00:59N 31°23' E 121°35'0 0.0
2017-Jun-17 00:29N 31°23' E 121°35'0 0.0
2017-Jun-16 23:59N 31°23' E 121°35'0 0.0
2017-Jun-16 23:29N 31°23' E 121°35'0 0.0
2017-Jun-16 22:59N 31°23' E 121°35'0 0.0
2017-Jun-16 22:29N 31°23' E 121°35'0 0.0
2017-Jun-16 21:53N 31°23' E 121°35'0 0.1
2017-Jun-16 21:26N 31°23' E 121°35'0 0.0
2017-Jun-16 20:59N 31°23' E 121°35'1 1.2
2017-Jun-16 20:30N 31°23' E 121°34'2 3.6
2017-Jun-16 20:00N 31°23' E 121°36'510.5
2017-Jun-16 19:30N 31°20' E 121°42'510.5
2017-Jun-16 19:00N 31°18' E 121°47'510.7
2017-Jun-16 18:30N 31°16' E 121°53'714.0
2017-Jun-16 18:00N 31°15' E 122°01'510.7
2017-Jun-16 17:30N 31°13' E 122°07'5 9.8
2017-Jun-16 17:01N 31°10' E 122°12'4 8.4
2017-Jun-16 16:30N 31°08' E 122°16'4 8.7
2017-Jun-16 16:00N 31°06' E 122°21'612.7
2017-Jun-16 15:30N 31°07' E 122°28'612.4
2017-Jun-16 14:59N 31°07' E 122°35'913.2
2017-Jun-16 14:18N 31°05' E 122°46'7 0.8
2017-Jun-16 05:24N 31°05' E 122°54'512.1
2017-Jun-16 04:59N 31°01' E 122°57'613.1
2017-Jun-16 04:30N 30°56' E 123°02'713.5
2017-Jun-16 04:00N 30°49' E 123°02'713.3
2017-Jun-16 03:30N 30°43' E 123°02'1512.8
2017-Jun-16 02:19N 30°28' E 123°03'412.5
2017-Jun-16 01:59N 30°23' E 123°04'  
Track history (hours):
 
Tides and Currents Weather Stations Pressure Air Temp Water Temp Dewpoint Dewpoint Depression Visibility Wind Speed Wind Dir Waves Ship Positions

CSCL Long Beach

Last reported at 2017-Jun-20 17:36 UTC. Time now 2017-Jun-24 05:21 UTC.
Position N 23°48' E 118°32'.

Length 336.7 m; beam 45.6 m; draft 15 m.

Type: Ship. MMSI: 477883900.

Date/timePositionNaut miles runAvg speedWind from/ knotsBaromVisibWave heightAir tempDewpointWater temp
2017-Jun-20 17:36N 23°48' E 118°32'  
2017-Jun-18 03:58N 30°53' E 123°02'811.8
2017-Jun-18 03:17N 30°60' E 122°57'1011.9
2017-Jun-18 02:28N 31°05' E 122°48'712.6
2017-Jun-18 01:57N 31°05' E 122°40'715.7
2017-Jun-18 01:30N 31°06' E 122°32'612.4
2017-Jun-18 01:00N 31°06' E 122°24'714.0
2017-Jun-18 00:30N 31°07' E 122°16'815.2
2017-Jun-17 23:59N 31°12' E 122°09'714.5
2017-Jun-17 23:30N 31°14' E 122°01'815.0
2017-Jun-17 23:01N 31°16' E 121°53'815.0
2017-Jun-17 22:30N 31°19' E 121°45'612.7
2017-Jun-17 22:00N 31°22' E 121°38'3 5.8
2017-Jun-17 21:29N 31°23' E 121°35'0 0.0
2017-Jun-17 20:59N 31°23' E 121°35'0 0.0
2017-Jun-17 20:26N 31°23' E 121°35'0 0.1
2017-Jun-17 19:59N 31°23' E 121°35'0 0.0
2017-Jun-17 19:23N 31°23' E 121°35'0 0.0
2017-Jun-17 18:59N 31°23' E 121°35'0 0.0
2017-Jun-17 18:29N 31°23' E 121°35'0 0.0
2017-Jun-17 17:59N 31°23' E 121°35'0 0.0
2017-Jun-17 17:29N 31°23' E 121°35'0 0.0
2017-Jun-17 16:56N 31°23' E 121°35'0 0.0
2017-Jun-17 16:29N 31°23' E 121°35'0 0.0
2017-Jun-17 15:56N 31°23' E 121°35'0 0.0
2017-Jun-17 15:29N 31°23' E 121°35'0 0.0
2017-Jun-17 14:59N 31°23' E 121°35'0 0.0
2017-Jun-17 14:29N 31°23' E 121°35'0 0.0
2017-Jun-17 13:29N 31°23' E 121°35'0 0.0
2017-Jun-17 12:59N 31°23' E 121°35'0 0.0
2017-Jun-17 12:29N 31°23' E 121°35'0 0.0
2017-Jun-17 11:59N 31°23' E 121°35'0 0.0
2017-Jun-17 11:29N 31°23' E 121°35'0 0.0
2017-Jun-17 10:59N 31°23' E 121°35'0 0.1
2017-Jun-17 10:26N 31°23' E 121°35'0 0.2
2017-Jun-17 09:59N 31°23' E 121°35'0 0.0
2017-Jun-17 09:26N 31°23' E 121°35'0 0.0
2017-Jun-17 08:56N 31°23' E 121°35'0 0.0
2017-Jun-17 08:29N 31°23' E 121°35'0 0.0
2017-Jun-17 07:59N 31°23' E 121°35'0 0.0
2017-Jun-17 07:29N 31°23' E 121°35'0 0.0
2017-Jun-17 06:59N 31°23' E 121°35'0 0.0
2017-Jun-17 06:29N 31°23' E 121°35'0 0.0
2017-Jun-17 05:53N 31°23' E 121°35'0 0.0
2017-Jun-17 05:29N 31°23' E 121°35'0 0.0
2017-Jun-17 04:59N 31°23' E 121°35'0 0.0
2017-Jun-17 04:29N 31°23' E 121°35'0 0.0
2017-Jun-17 03:59N 31°23' E 121°35'0 0.0
2017-Jun-17 03:29N 31°23' E 121°35'0 0.0
2017-Jun-17 02:59N 31°23' E 121°35'0 0.0
2017-Jun-17 02:29N 31°23' E 121°35'0 0.0
2017-Jun-17 01:59N 31°23' E 121°35'0 0.0
2017-Jun-17 01:29N 31°23' E 121°35'0 0.0
2017-Jun-17 00:59N 31°23' E 121°35'0 0.0
2017-Jun-17 00:29N 31°23' E 121°35'0 0.0
2017-Jun-16 23:59N 31°23' E 121°35'0 0.0
2017-Jun-16 23:29N 31°23' E 121°35'0 0.0
2017-Jun-16 22:59N 31°23' E 121°35'0 0.0
2017-Jun-16 22:29N 31°23' E 121°35'0 0.0
2017-Jun-16 21:53N 31°23' E 121°35'0 0.1
2017-Jun-16 21:26N 31°23' E 121°35'0 0.0
2017-Jun-16 20:59N 31°23' E 121°35'1 1.2
2017-Jun-16 20:30N 31°23' E 121°34'2 3.6
2017-Jun-16 20:00N 31°23' E 121°36'510.5
2017-Jun-16 19:30N 31°20' E 121°42'510.5
2017-Jun-16 19:00N 31°18' E 121°47'510.7
2017-Jun-16 18:30N 31°16' E 121°53'714.0
2017-Jun-16 18:00N 31°15' E 122°01'510.7
2017-Jun-16 17:30N 31°13' E 122°07'5 9.8
2017-Jun-16 17:01N 31°10' E 122°12'4 8.4
2017-Jun-16 16:30N 31°08' E 122°16'4 8.7
2017-Jun-16 16:00N 31°06' E 122°21'612.7
2017-Jun-16 15:30N 31°07' E 122°28'612.4
2017-Jun-16 14:59N 31°07' E 122°35'913.2
2017-Jun-16 14:18N 31°05' E 122°46'7 0.8
2017-Jun-16 05:24N 31°05' E 122°54'512.1
2017-Jun-16 04:59N 31°01' E 122°57'613.1
2017-Jun-16 04:30N 30°56' E 123°02'713.5
2017-Jun-16 04:00N 30°49' E 123°02'713.3
2017-Jun-16 03:30N 30°43' E 123°02'1512.8
2017-Jun-16 02:19N 30°28' E 123°03'412.5
2017-Jun-16 01:59N 30°23' E 123°04'  

Dump ship's entire track history